createdAt,value
2019-05-23T00:04:42.922Z,79
2019-05-23T00:09:47.876Z,79
2019-05-23T00:14:52.848Z,79
2019-05-23T00:19:57.950Z,79
2019-05-23T00:25:02.840Z,80
2019-05-23T00:30:12.822Z,80
2019-05-23T00:35:22.861Z,80
2019-05-23T00:45:23.119Z,80
2019-05-23T00:50:28.125Z,80
2019-05-23T00:55:33.094Z,80
2019-05-23T01:00:43.109Z,80
2019-05-23T01:05:53.095Z,81
2019-05-23T01:10:58.091Z,81
2019-05-23T01:16:03.073Z,81
2019-05-23T01:21:08.160Z,81
2019-05-23T01:26:13.103Z,82
2019-05-23T01:31:23.264Z,82
2019-05-23T01:36:33.082Z,82
2019-05-23T01:41:38.132Z,83
2019-05-23T01:46:43.141Z,83
2019-05-23T01:51:48.093Z,83
2019-05-23T02:01:48.185Z,84
2019-05-23T02:06:53.207Z,84
2019-05-23T02:11:58.269Z,85
2019-05-23T02:17:08.181Z,85
2019-05-23T02:22:18.208Z,85
2019-05-23T02:27:23.288Z,85
2019-05-23T02:32:28.230Z,85
2019-05-23T02:37:33.231Z,85
2019-05-23T02:42:38.225Z,86
2019-05-23T02:47:58.162Z,84
2019-05-23T02:53:13.218Z,83
2019-05-23T02:58:23.211Z,84
2019-05-23T03:03:33.258Z,84
2019-05-23T03:08:38.230Z,84
2019-05-23T03:13:43.157Z,85
2019-05-23T03:18:48.257Z,86
2019-05-23T03:23:53.167Z,87
2019-05-23T03:29:03.192Z,88
2019-05-23T03:34:13.408Z,87
2019-05-23T03:39:18.221Z,86
2019-05-23T03:44:23.197Z,85
2019-05-23T03:49:28.202Z,86
2019-05-23T03:54:33.160Z,87
2019-05-23T03:59:43.162Z,88
2019-05-23T04:04:53.137Z,87
2019-05-23T04:09:58.121Z,87
2019-05-23T04:15:03.172Z,88
2019-05-23T04:20:08.106Z,88
2019-05-23T04:25:13.116Z,88
2019-05-23T04:30:23.152Z,88
2019-05-23T04:35:33.162Z,82
2019-05-23T04:40:38.143Z,77
2019-05-23T04:45:43.162Z,72
2019-05-23T04:50:48.161Z,70
2019-05-23T04:55:53.168Z,68
2019-05-23T05:01:03.150Z,67
2019-05-23T05:06:13.153Z,66
2019-05-23T05:11:18.165Z,64
2019-05-23T05:16:23.177Z,63
2019-05-23T05:21:28.101Z,61
2019-05-23T05:31:28.327Z,59
2019-05-23T05:36:33.519Z,58
2019-05-23T05:41:38.260Z,58
2019-05-23T05:46:48.311Z,55
2019-05-23T05:51:58.403Z,57
2019-05-23T05:57:03.589Z,55
2019-05-23T06:02:09.264Z,55
2019-05-23T06:07:13.295Z,54
2019-05-23T06:12:18.304Z,54
2019-05-23T06:17:28.241Z,54
2019-05-23T06:22:38.340Z,54
2019-05-23T06:27:43.302Z,54
2019-05-23T06:32:48.336Z,53
2019-05-23T06:37:53.373Z,52
2019-05-23T06:42:58.301Z,52
2019-05-23T06:48:08.250Z,52
2019-05-23T06:53:18.280Z,51
2019-05-23T06:58:24.543Z,51
2019-05-23T07:04:39.613Z,51
2019-05-23T07:08:33.683Z,52
2019-05-23T07:13:38.420Z,48
2019-05-23T07:18:43.199Z,50
2019-05-23T07:23:53.286Z,50
2019-05-23T07:29:03.198Z,50
2019-05-23T07:34:08.346Z,50
2019-05-23T07:39:13.516Z,47
2019-05-23T07:44:18.251Z,48
2019-05-23T07:49:23.181Z,47
2019-05-23T07:54:33.302Z,47
2019-05-23T08:04:38.485Z,45
2019-05-23T08:09:43.493Z,46
2019-05-23T08:19:50.621Z,47
2019-05-23T08:24:51.649Z,46
2019-05-23T08:29:53.932Z,47
2019-05-23T08:35:03.834Z,45
2019-05-23T08:40:13.656Z,44
2019-05-23T08:45:18.663Z,43
2019-05-23T08:50:23.851Z,45
2019-05-23T08:55:28.710Z,43
2019-05-23T09:00:33.700Z,44
2019-05-23T09:05:53.675Z,43
2019-05-23T09:11:08.706Z,43
2019-05-23T09:16:18.689Z,42
2019-05-23T09:21:28.784Z,43
2019-05-23T09:26:33.620Z,44
2019-05-23T09:31:38.655Z,44
2019-05-23T09:36:43.663Z,42
2019-05-23T09:41:48.626Z,43
2019-05-23T09:46:58.631Z,41
2019-05-23T09:52:10.202Z,43
2019-05-23T09:57:13.723Z,40
2019-05-23T10:02:18.703Z,40
2019-05-23T10:07:23.603Z,41
2019-05-23T10:12:28.697Z,38
2019-05-23T10:22:28.800Z,37
2019-05-23T10:27:33.867Z,39
2019-05-23T10:32:38.894Z,38
2019-05-23T10:37:48.804Z,38
2019-05-23T10:42:58.891Z,38
2019-05-23T10:48:03.853Z,38
2019-05-23T10:53:09.146Z,37
2019-05-23T10:58:13.813Z,38
2019-05-23T11:03:19.127Z,39
2019-05-23T11:08:30.854Z,39
2019-05-23T11:13:38.938Z,39
2019-05-23T11:18:43.894Z,40
2019-05-23T11:23:48.863Z,38
2019-05-23T11:28:53.836Z,40
2019-05-23T11:33:58.813Z,41
2019-05-23T11:39:08.894Z,40
2019-05-23T11:44:18.809Z,40
2019-05-23T11:49:23.806Z,38
2019-05-23T11:54:28.810Z,39
2019-05-23T11:59:34.037Z,39
2019-05-23T12:04:38.814Z,40
2019-05-23T12:09:58.959Z,39
2019-05-23T12:15:13.910Z,40
2019-05-23T12:20:23.855Z,40
2019-05-23T12:25:33.790Z,40
2019-05-23T12:30:38.801Z,40
2019-05-23T12:35:43.830Z,41
2019-05-23T12:45:44.022Z,41
2019-05-23T12:50:54.497Z,42
2019-05-23T12:55:54.015Z,41
2019-05-23T13:01:04.093Z,39
2019-05-23T13:06:13.935Z,38
2019-05-23T13:11:19.056Z,38
2019-05-23T13:16:23.934Z,38
2019-05-23T13:21:28.961Z,39
2019-05-23T13:31:29.127Z,38
2019-05-23T13:41:29.356Z,38
2019-05-23T13:46:34.482Z,38
2019-05-23T13:51:39.478Z,38
2019-05-23T13:56:49.449Z,39
2019-05-23T14:01:59.743Z,40
2019-05-23T14:07:04.420Z,37
2019-05-23T14:13:26.807Z,38
2019-05-23T14:17:14.583Z,37
2019-05-23T14:22:19.449Z,39
2019-05-23T14:27:29.400Z,38
2019-05-23T14:32:39.414Z,37
2019-05-23T14:37:44.540Z,38
2019-05-23T14:42:53.566Z,37
2019-05-23T14:47:54.487Z,36
2019-05-23T14:52:59.344Z,37
2019-05-23T14:58:09.456Z,37
2019-05-23T15:03:19.433Z,38
2019-05-23T15:08:24.470Z,38
2019-05-23T15:13:29.450Z,38
2019-05-23T15:18:34.397Z,39
2019-05-23T15:23:39.441Z,37
2019-05-23T15:28:59.446Z,37
2019-05-23T15:34:14.418Z,37
2019-05-23T15:39:24.370Z,38
2019-05-23T15:44:34.448Z,38
2019-05-23T15:49:39.385Z,38
2019-05-23T15:54:44.489Z,38
2019-05-23T15:59:49.776Z,38
2019-05-23T16:04:54.372Z,39
2019-05-23T16:10:04.403Z,38
2019-05-23T16:15:14.352Z,38
2019-05-23T16:20:19.422Z,39
2019-05-23T16:25:24.407Z,38
2019-05-23T16:30:29.336Z,38
2019-05-23T16:35:34.326Z,37
2019-05-23T16:40:44.386Z,37
2019-05-23T16:45:54.368Z,37
2019-05-23T16:50:59.455Z,37
2019-05-23T16:56:04.306Z,38
2019-05-23T17:02:20.685Z,37
2019-05-23T17:11:09.607Z,38
2019-05-23T17:16:14.559Z,38
2019-05-23T17:26:14.685Z,38
2019-05-23T17:31:19.859Z,37
2019-05-23T17:36:24.828Z,39
2019-05-23T17:41:34.736Z,39
2019-05-23T17:51:39.905Z,40
2019-05-23T17:56:45.046Z,40
2019-05-23T18:06:45.377Z,41
2019-05-23T18:11:50.385Z,41
2019-05-23T18:16:55.235Z,40
2019-05-23T18:22:05.164Z,40
2019-05-23T18:27:15.276Z,41
2019-05-23T18:32:20.206Z,41
2019-05-23T18:37:25.209Z,41
2019-05-23T18:42:30.193Z,41
2019-05-23T18:47:35.155Z,41
2019-05-23T18:52:45.140Z,41
2019-05-23T18:57:55.139Z,41
2019-05-23T19:03:00.297Z,41
2019-05-23T19:08:05.162Z,42
2019-05-23T19:13:10.207Z,42
2019-05-23T19:18:15.297Z,42
2019-05-23T19:23:25.161Z,42
2019-05-23T19:28:35.141Z,42
2019-05-23T19:33:40.146Z,42
2019-05-23T19:38:45.147Z,42
2019-05-23T19:43:50.189Z,43
2019-05-23T19:48:55.217Z,44
2019-05-23T19:54:00.091Z,44
2019-05-23T19:59:05.163Z,45
2019-05-23T20:09:05.359Z,47
2019-05-23T20:19:06.865Z,46
2019-05-23T20:24:10.686Z,47
2019-05-23T20:29:15.668Z,48
2019-05-23T20:34:25.577Z,47
2019-05-23T20:39:35.590Z,48
2019-05-23T20:44:40.582Z,48
2019-05-23T20:49:45.603Z,50
2019-05-23T20:54:51.613Z,51
2019-05-23T20:59:55.602Z,51
2019-05-23T21:05:05.558Z,51
2019-05-23T21:10:15.628Z,51
2019-05-23T21:15:20.558Z,52
2019-05-23T21:20:25.634Z,54
2019-05-23T21:25:30.586Z,54
2019-05-23T21:30:35.679Z,54
2019-05-23T21:35:45.572Z,54
2019-05-23T21:40:55.652Z,55
2019-05-23T21:46:00.613Z,56
2019-05-23T21:51:05.797Z,55
2019-05-23T21:56:10.582Z,56
2019-05-23T22:01:15.552Z,56
2019-05-23T22:06:35.632Z,57
2019-05-23T22:11:50.588Z,57
2019-05-23T22:17:00.529Z,58
2019-05-23T22:22:10.584Z,58
2019-05-23T22:27:15.498Z,59
2019-05-23T22:32:20.506Z,60
2019-05-23T22:37:25.544Z,60
2019-05-23T22:42:30.524Z,60
2019-05-23T22:47:40.521Z,60
2019-05-23T22:52:50.520Z,60
2019-05-23T22:57:55.511Z,61
2019-05-23T23:03:00.607Z,61
2019-05-23T23:08:05.501Z,61
2019-05-23T23:13:10.509Z,61
2019-05-23T23:18:20.498Z,60
2019-05-23T23:23:30.544Z,59
2019-05-23T23:28:35.507Z,59
2019-05-23T23:33:40.766Z,60
2019-05-23T23:38:45.478Z,58
2019-05-23T23:48:45.875Z,61
2019-05-23T23:53:51.267Z,61
